sensor_id;sensor_type;location;lat;lon;timestamp;pressure;altitude;pressure_sealevel;temperature;humidity
43420;BME280;29017;51.514;-0.178;2022-11-20T00:01:51;100743.25;;;10.32;81.54
43420;BME280;29017;51.514;-0.178;2022-11-20T00:04:18;100739.31;;;10.28;81.71
43420;BME280;29017;51.514;-0.178;2022-11-20T00:06:45;100741.09;;;10.27;82.26
43420;BME280;29017;51.514;-0.178;2022-11-20T00:09:14;100743.06;;;10.25;82.26
43420;BME280;29017;51.514;-0.178;2022-11-20T00:11:41;100744.03;;;10.24;82.07
43420;BME280;29017;51.514;-0.178;2022-11-20T00:14:08;100745.03;;;10.23;81.71
43420;BME280;29017;51.514;-0.178;2022-11-20T00:16:36;100744.88;;;10.25;82.29
43420;BME280;29017;51.514;-0.178;2022-11-20T00:19:05;100737.63;;;10.27;82.16
43420;BME280;29017;51.514;-0.178;2022-11-20T00:21:32;100736.66;;;10.28;81.54
43420;BME280;29017;51.514;-0.178;2022-11-20T00:23:59;100729.47;;;10.30;81.22
43420;BME280;29017;51.514;-0.178;2022-11-20T00:26:29;100725.84;;;10.31;81.45
43420;BME280;29017;51.514;-0.178;2022-11-20T00:28:57;100722.91;;;10.34;81.87
43420;BME280;29017;51.514;-0.178;2022-11-20T00:31:25;100722.22;;;10.32;80.98
43420;BME280;29017;51.514;-0.178;2022-11-20T00:33:52;100723.19;;;10.31;80.48
43420;BME280;29017;51.514;-0.178;2022-11-20T00:36:23;100716.97;;;10.32;81.00
43420;BME280;29017;51.514;-0.178;2022-11-20T00:38:54;100701.88;;;10.34;80.96
43420;BME280;29017;51.514;-0.178;2022-11-20T00:41:22;100706.31;;;10.34;80.33
43420;BME280;29017;51.514;-0.178;2022-11-20T00:43:51;100704.66;;;10.33;80.07
43420;BME280;29017;51.514;-0.178;2022-11-20T00:46:19;100696.91;;;10.31;79.61
43420;BME280;29017;51.514;-0.178;2022-11-20T00:48:46;100694.13;;;10.33;80.19
43420;BME280;29017;51.514;-0.178;2022-11-20T00:51:14;100696.63;;;10.34;79.34
43420;BME280;29017;51.514;-0.178;2022-11-20T00:53:42;100693.00;;;10.35;79.02
43420;BME280;29017;51.514;-0.178;2022-11-20T00:56:10;100690.19;;;10.37;78.38
43420;BME280;29017;51.514;-0.178;2022-11-20T00:58:44;100680.50;;;10.37;78.90
43420;BME280;29017;51.514;-0.178;2022-11-20T01:01:15;100683.00;;;10.39;78.72
43420;BME280;29017;51.514;-0.178;2022-11-20T01:03:46;100679.53;;;10.38;78.29
43420;BME280;29017;51.514;-0.178;2022-11-20T01:06:27;100678.72;;;10.38;78.31
43420;BME280;29017;51.514;-0.178;2022-11-20T01:08:55;100678.06;;;10.36;77.25
43420;BME280;29017;51.514;-0.178;2022-11-20T01:11:24;100681.19;;;10.39;77.97
43420;BME280;29017;51.514;-0.178;2022-11-20T01:13:51;100673.31;;;10.39;77.98
43420;BME280;29017;51.514;-0.178;2022-11-20T01:16:20;100667.06;;;10.40;77.43
43420;BME280;29017;51.514;-0.178;2022-11-20T01:18:49;100662.78;;;10.39;76.42
43420;BME280;29017;51.514;-0.178;2022-11-20T01:21:18;100667.06;;;10.40;76.58
43420;BME280;29017;51.514;-0.178;2022-11-20T01:23:45;100666.09;;;10.41;76.26
43420;BME280;29017;51.514;-0.178;2022-11-20T01:26:14;100657.38;;;10.41;75.75
43420;BME280;29017;51.514;-0.178;2022-11-20T01:28:41;100659.84;;;10.42;75.61
43420;BME280;29017;51.514;-0.178;2022-11-20T01:31:12;100662.31;;;10.44;75.95
43420;BME280;29017;51.514;-0.178;2022-11-20T01:33:39;100654.41;;;10.44;75.11
43420;BME280;29017;51.514;-0.178;2022-11-20T01:36:07;100652.63;;;10.44;74.71
43420;BME280;29017;51.514;-0.178;2022-11-20T01:38:35;100640.44;;;10.43;74.94
43420;BME280;29017;51.514;-0.178;2022-11-20T01:41:02;100637.66;;;10.45;74.64
43420;BME280;29017;51.514;-0.178;2022-11-20T01:43:31;100640.31;;;10.45;74.44
43420;BME280;29017;51.514;-0.178;2022-11-20T01:46:03;100636.84;;;10.44;74.67
43420;BME280;29017;51.514;-0.178;2022-11-20T01:49:17;100628.81;;;10.46;74.31
43420;BME280;29017;51.514;-0.178;2022-11-20T01:54:04;100618.09;;;10.47;74.55
43420;BME280;29017;51.514;-0.178;2022-11-20T01:56:33;100615.47;;;10.47;73.90
43420;BME280;29017;51.514;-0.178;2022-11-20T01:59:03;100605.97;;;10.46;73.60
43420;BME280;29017;51.514;-0.178;2022-11-20T02:01:34;100609.38;;;10.47;73.62
43420;BME280;29017;51.514;-0.178;2022-11-20T02:04:01;100594.13;;;10.50;74.67
43420;BME280;29017;51.514;-0.178;2022-11-20T02:06:33;100595.59;;;10.53;73.71
43420;BME280;29017;51.514;-0.178;2022-11-20T02:09:02;100600.72;;;10.54;72.90
43420;BME280;29017;51.514;-0.178;2022-11-20T02:11:29;100593.66;;;10.55;72.94
43420;BME280;29017;51.514;-0.178;2022-11-20T02:13:56;100584.78;;;10.56;72.99
43420;BME280;29017;51.514;-0.178;2022-11-20T02:16:25;100586.41;;;10.57;72.84
43420;BME280;29017;51.514;-0.178;2022-11-20T02:19:01;100582.31;;;10.54;73.17
43420;BME280;29017;51.514;-0.178;2022-11-20T02:24:02;100574.75;;;10.59;73.27
43420;BME280;29017;51.514;-0.178;2022-11-20T02:26:32;100571.31;;;10.59;72.97
43420;BME280;29017;51.514;-0.178;2022-11-20T02:29:00;100570.19;;;10.61;73.25
43420;BME280;29017;51.514;-0.178;2022-11-20T02:31:35;100560.31;;;10.63;72.96
43420;BME280;29017;51.514;-0.178;2022-11-20T02:34:03;100567.06;;;10.66;72.60
43420;BME280;29017;51.514;-0.178;2022-11-20T02:36:30;100555.53;;;10.67;72.97
43420;BME280;29017;51.514;-0.178;2022-11-20T02:38:58;100547.50;;;10.68;73.58
43420;BME280;29017;51.514;-0.178;2022-11-20T02:41:30;100550.78;;;10.70;74.98
43420;BME280;29017;51.514;-0.178;2022-11-20T02:44:00;100540.28;;;10.70;74.45
43420;BME280;29017;51.514;-0.178;2022-11-20T02:46:27;100537.47;;;10.72;73.40
43420;BME280;29017;51.514;-0.178;2022-11-20T02:48:54;100535.66;;;10.72;74.18
43420;BME280;29017;51.514;-0.178;2022-11-20T02:51:21;100534.03;;;10.71;73.21
43420;BME280;29017;51.514;-0.178;2022-11-20T02:53:48;100530.03;;;10.67;72.45
43420;BME280;29017;51.514;-0.178;2022-11-20T02:56:15;100516.06;;;10.67;73.74
43420;BME280;29017;51.514;-0.178;2022-11-20T02:58:42;100517.06;;;10.66;74.57
43420;BME280;29017;51.514;-0.178;2022-11-20T03:01:09;100519.53;;;10.67;75.68
43420;BME280;29017;51.514;-0.178;2022-11-20T03:03:36;100523.66;;;10.70;74.25
43420;BME280;29017;51.514;-0.178;2022-11-20T03:06:06;100511.97;;;10.72;74.81
43420;BME280;29017;51.514;-0.178;2022-11-20T03:08:33;100509.19;;;10.74;73.35
43420;BME280;29017;51.514;-0.178;2022-11-20T03:14:18;100508.69;;;10.79;72.71
43420;BME280;29017;51.514;-0.178;2022-11-20T03:16:45;100500.97;;;10.77;71.21
43420;BME280;29017;51.514;-0.178;2022-11-20T03:19:12;100499.81;;;10.80;71.52
43420;BME280;29017;51.514;-0.178;2022-11-20T03:21:39;100493.59;;;10.81;71.10
43420;BME280;29017;51.514;-0.178;2022-11-20T03:24:06;100499.81;;;10.80;70.55
43420;BME280;29017;51.514;-0.178;2022-11-20T03:26:33;100497.03;;;10.81;70.97
43420;BME280;29017;51.514;-0.178;2022-11-20T03:29:04;100494.41;;;10.81;71.42
43420;BME280;29017;51.514;-0.178;2022-11-20T03:31:32;100482.22;;;10.80;71.47
43420;BME280;29017;51.514;-0.178;2022-11-20T03:34:02;100480.91;;;10.76;71.35
43420;BME280;29017;51.514;-0.178;2022-11-20T03:36:29;100480.09;;;10.76;71.85
43420;BME280;29017;51.514;-0.178;2022-11-20T03:38:56;100481.75;;;10.77;72.36
43420;BME280;29017;51.514;-0.178;2022-11-20T03:41:24;100472.69;;;10.79;73.10
43420;BME280;29017;51.514;-0.178;2022-11-20T03:43:52;100469.91;;;10.81;73.23
43420;BME280;29017;51.514;-0.178;2022-11-20T03:46:20;100475.97;;;10.81;73.87
43420;BME280;29017;51.514;-0.178;2022-11-20T03:48:47;100463.81;;;10.80;74.58
43420;BME280;29017;51.514;-0.178;2022-11-20T03:51:21;100467.25;;;10.81;75.43
43420;BME280;29017;51.514;-0.178;2022-11-20T03:53:49;100459.69;;;10.78;76.62
43420;BME280;29017;51.514;-0.178;2022-11-20T03:56:17;100449.34;;;10.76;77.83
43420;BME280;29017;51.514;-0.178;2022-11-20T03:58:44;100452.94;;;10.75;79.38
43420;BME280;29017;51.514;-0.178;2022-11-20T04:01:12;100455.72;;;10.73;80.24
43420;BME280;29017;51.514;-0.178;2022-11-20T04:03:43;100448.81;;;10.72;81.16
43420;BME280;29017;51.514;-0.178;2022-11-20T04:06:17;100436.97;;;10.68;82.07
43420;BME280;29017;51.514;-0.178;2022-11-20T04:08:44;100431.06;;;10.66;82.76
43420;BME280;29017;51.514;-0.178;2022-11-20T04:11:20;100422.50;;;10.64;84.31
43420;BME280;29017;51.514;-0.178;2022-11-20T04:13:48;100427.09;;;10.62;84.59
43420;BME280;29017;51.514;-0.178;2022-11-20T04:16:18;100431.88;;;10.59;85.40
43420;BME280;29017;51.514;-0.178;2022-11-20T04:18:45;100424.97;;;10.58;86.33
43420;BME280;29017;51.514;-0.178;2022-11-20T04:21:12;100421.69;;;10.56;86.62
43420;BME280;29017;51.514;-0.178;2022-11-20T04:23:39;100417.56;;;10.53;87.02
43420;BME280;29017;51.514;-0.178;2022-11-20T04:26:07;100416.75;;;10.53;87.63
43420;BME280;29017;51.514;-0.178;2022-11-20T04:28:34;100419.69;;;10.50;88.38
43420;BME280;29017;51.514;-0.178;2022-11-20T04:31:04;100406.84;;;10.47;89.02
43420;BME280;29017;51.514;-0.178;2022-11-20T04:33:31;100409.50;;;10.47;89.63
43420;BME280;29017;51.514;-0.178;2022-11-20T04:36:06;100393.91;;;10.45;90.35
43420;BME280;29017;51.514;-0.178;2022-11-20T04:38:34;100398.31;;;10.45;90.52
43420;BME280;29017;51.514;-0.178;2022-11-20T04:41:01;100398.47;;;10.43;91.61
43420;BME280;29017;51.514;-0.178;2022-11-20T04:43:28;100403.09;;;10.41;91.41
43420;BME280;29017;51.514;-0.178;2022-11-20T04:45:56;100398.81;;;10.40;91.25
43420;BME280;29017;51.514;-0.178;2022-11-20T04:48:24;100393.56;;;10.40;91.48
43420;BME280;29017;51.514;-0.178;2022-11-20T04:50:53;100396.00;;;10.42;91.89
43420;BME280;29017;51.514;-0.178;2022-11-20T04:53:20;100390.94;;;10.40;91.83
43420;BME280;29017;51.514;-0.178;2022-11-20T04:55:47;100385.47;;;10.42;92.29
43420;BME280;29017;51.514;-0.178;2022-11-20T04:58:15;100382.06;;;10.41;92.17
43420;BME280;29017;51.514;-0.178;2022-11-20T05:03:46;100364.94;;;10.37;92.33
43420;BME280;29017;51.514;-0.178;2022-11-20T05:06:13;100364.13;;;10.37;92.87
43420;BME280;29017;51.514;-0.178;2022-11-20T05:08:41;100341.28;;;10.37;92.78
43420;BME280;29017;51.514;-0.178;2022-11-20T05:11:09;100344.91;;;10.36;92.93
43420;BME280;29017;51.514;-0.178;2022-11-20T05:13:36;100335.19;;;10.37;93.07
43420;BME280;29017;51.514;-0.178;2022-11-20T05:16:04;100335.19;;;10.37;93.21
43420;BME280;29017;51.514;-0.178;2022-11-20T05:18:32;100332.56;;;10.37;93.47
43420;BME280;29017;51.514;-0.178;2022-11-20T05:20:59;100321.25;;;10.36;93.58
43420;BME280;29017;51.514;-0.178;2022-11-20T05:23:27;100323.88;;;10.36;93.61
43420;BME280;29017;51.514;-0.178;2022-11-20T05:25:55;100323.88;;;10.36;93.44
43420;BME280;29017;51.514;-0.178;2022-11-20T05:28:25;100323.88;;;10.36;93.53
43420;BME280;29017;51.514;-0.178;2022-11-20T05:30:52;100310.72;;;10.36;93.88
43420;BME280;29017;51.514;-0.178;2022-11-20T05:33:20;100306.94;;;10.39;93.99
43420;BME280;29017;51.514;-0.178;2022-11-20T05:35:47;100301.50;;;10.40;94.57
43420;BME280;29017;51.514;-0.178;2022-11-20T05:38:15;100305.59;;;10.43;94.57
43420;BME280;29017;51.514;-0.178;2022-11-20T05:40:41;100299.53;;;10.42;94.57
43420;BME280;29017;51.514;-0.178;2022-11-20T05:43:08;100301.16;;;10.43;94.92
43420;BME280;29017;51.514;-0.178;2022-11-20T05:45:35;100298.03;;;10.48;95.18
43420;BME280;29017;51.514;-0.178;2022-11-20T05:48:02;100301.34;;;10.50;95.18
43420;BME280;29017;51.514;-0.178;2022-11-20T05:50:29;100301.19;;;10.51;95.42
43420;BME280;29017;51.514;-0.178;2022-11-20T05:52:59;100286.03;;;10.53;95.81
43420;BME280;29017;51.514;-0.178;2022-11-20T05:55:27;100288.50;;;10.55;95.76
43420;BME280;29017;51.514;-0.178;2022-11-20T05:57:54;100286.38;;;10.58;96.14
43420;BME280;29017;51.514;-0.178;2022-11-20T06:00:21;100292.28;;;10.60;96.41
43420;BME280;29017;51.514;-0.178;2022-11-20T06:02:53;100275.69;;;10.60;96.41
43420;BME280;29017;51.514;-0.178;2022-11-20T06:05:20;100272.06;;;10.61;96.73
43420;BME280;29017;51.514;-0.178;2022-11-20T06:07:47;100277.34;;;10.61;96.88
43420;BME280;29017;51.514;-0.178;2022-11-20T06:10:14;100266.00;;;10.60;97.10
43420;BME280;29017;51.514;-0.178;2022-11-20T06:12:41;100266.97;;;10.59;97.35
43420;BME280;29017;51.514;-0.178;2022-11-20T06:15:08;100255.63;;;10.59;97.25
43420;BME280;29017;51.514;-0.178;2022-11-20T06:17:34;100257.44;;;10.58;97.14
43420;BME280;29017;51.514;-0.178;2022-11-20T06:20:01;100249.38;;;10.60;97.34
43420;BME280;29017;51.514;-0.178;2022-11-20T06:22:28;100236.22;;;10.60;97.46
43420;BME280;29017;51.514;-0.178;2022-11-20T06:28:13;100223.72;;;10.62;97.12
43420;BME280;29017;51.514;-0.178;2022-11-20T06:30:46;100231.59;;;10.62;97.06
43420;BME280;29017;51.514;-0.178;2022-11-20T06:33:13;100223.91;;;10.60;97.15
43420;BME280;29017;51.514;-0.178;2022-11-20T06:35:40;100217.00;;;10.59;97.26
43420;BME280;29017;51.514;-0.178;2022-11-20T06:38:07;100221.25;;;10.60;97.27
43420;BME280;29017;51.514;-0.178;2022-11-20T06:43:48;100216.63;;;10.62;97.73
43420;BME280;29017;51.514;-0.178;2022-11-20T06:46:16;100224.38;;;10.64;97.64
43420;BME280;29017;51.514;-0.178;2022-11-20T06:48:46;100219.09;;;10.64;97.57
43420;BME280;29017;51.514;-0.178;2022-11-20T06:51:16;100221.59;;;10.65;97.76
43420;BME280;29017;51.514;-0.178;2022-11-20T06:53:43;100220.25;;;10.69;98.21
43420;BME280;29017;51.514;-0.178;2022-11-20T06:56:10;100215.31;;;10.75;98.66
43420;BME280;29017;51.514;-0.178;2022-11-20T06:58:37;100218.59;;;10.77;98.55
43420;BME280;29017;51.514;-0.178;2022-11-20T07:01:11;100225.31;;;10.79;98.61
43420;BME280;29017;51.514;-0.178;2022-11-20T07:06:46;100249.66;;;10.81;99.09
43420;BME280;29017;51.514;-0.178;2022-11-20T07:09:15;100252.28;;;10.81;99.56
43420;BME280;29017;51.514;-0.178;2022-11-20T07:11:42;100233.06;;;10.81;99.69
43420;BME280;29017;51.514;-0.178;2022-11-20T07:14:09;100220.88;;;10.80;100.00
43420;BME280;29017;51.514;-0.178;2022-11-20T07:16:36;100208.88;;;10.77;100.00
43420;BME280;29017;51.514;-0.178;2022-11-20T07:19:06;100207.06;;;10.78;100.00
43420;BME280;29017;51.514;-0.178;2022-11-20T07:21:33;100212.50;;;10.76;100.00
43420;BME280;29017;51.514;-0.178;2022-11-20T07:24:00;100212.50;;;10.76;100.00
43420;BME280;29017;51.514;-0.178;2022-11-20T07:26:27;100205.75;;;10.82;100.00
43420;BME280;29017;51.514;-0.178;2022-11-20T07:28:54;100203.91;;;10.82;100.00
43420;BME280;29017;51.514;-0.178;2022-11-20T07:31:21;100222.34;;;10.82;100.00
43420;BME280;29017;51.514;-0.178;2022-11-20T07:33:49;100212.63;;;10.83;100.00
43420;BME280;29017;51.514;-0.178;2022-11-20T07:36:16;100218.56;;;10.85;100.00
43420;BME280;29017;51.514;-0.178;2022-11-20T07:38:43;100220.00;;;10.87;100.00
43420;BME280;29017;51.514;-0.178;2022-11-20T07:41:10;100210.31;;;10.88;100.00
43420;BME280;29017;51.514;-0.178;2022-11-20T07:43:37;100212.94;;;10.88;100.00
43420;BME280;29017;51.514;-0.178;2022-11-20T07:46:06;100206.84;;;10.87;100.00
43420;BME280;29017;51.514;-0.178;2022-11-20T07:48:33;100208.69;;;10.87;100.00
43420;BME280;29017;51.514;-0.178;2022-11-20T07:51:00;100208.03;;;10.85;100.00
43420;BME280;29017;51.514;-0.178;2022-11-20T07:53:29;100212.13;;;10.87;100.00
43420;BME280;29017;51.514;-0.178;2022-11-20T07:56:00;100198.16;;;10.87;100.00
43420;BME280;29017;51.514;-0.178;2022-11-20T07:58:29;100214.59;;;10.89;100.00
43420;BME280;29017;51.514;-0.178;2022-11-20T08:00:56;100219.03;;;10.88;100.00
43420;BME280;29017;51.514;-0.178;2022-11-20T08:03:26;100214.44;;;10.90;100.00
43420;BME280;29017;51.514;-0.178;2022-11-20T08:05:53;100223.97;;;10.91;100.00
43420;BME280;29017;51.514;-0.178;2022-11-20T08:08:20;100223.97;;;10.91;100.00
43420;BME280;29017;51.514;-0.178;2022-11-20T08:10:48;100230.06;;;10.92;100.00
43420;BME280;29017;51.514;-0.178;2022-11-20T08:13:24;100229.88;;;10.93;100.00
43420;BME280;29017;51.514;-0.178;2022-11-20T08:16:10;100228.88;;;10.94;100.00
43420;BME280;29017;51.514;-0.178;2022-11-20T08:18:36;100238.44;;;10.95;100.00
43420;BME280;29017;51.514;-0.178;2022-11-20T08:21:04;100239.25;;;10.96;100.00
43420;BME280;29017;51.514;-0.178;2022-11-20T08:23:35;100254.69;;;10.99;100.00
43420;BME280;29017;51.514;-0.178;2022-11-20T08:26:04;100254.69;;;10.99;100.00
43420;BME280;29017;51.514;-0.178;2022-11-20T08:28:31;100265.88;;;11.01;100.00
43420;BME280;29017;51.514;-0.178;2022-11-20T08:31:01;100271.81;;;10.95;99.43
43420;BME280;29017;51.514;-0.178;2022-11-20T08:33:29;100271.16;;;10.93;99.64
43420;BME280;29017;51.514;-0.178;2022-11-20T08:36:00;100266.09;;;10.91;99.38
43420;BME280;29017;51.514;-0.178;2022-11-20T08:38:33;100272.81;;;10.94;99.92
43420;BME280;29017;51.514;-0.178;2022-11-20T08:47:37;100278.75;;;10.96;99.23
43420;BME280;29017;51.514;-0.178;2022-11-20T08:50:03;100275.28;;;10.95;99.21
43420;BME280;29017;51.514;-0.178;2022-11-20T08:52:30;100280.69;;;10.94;99.12
43420;BME280;29017;51.514;-0.178;2022-11-20T08:55:05;100288.94;;;10.91;98.95
43420;BME280;29017;51.514;-0.178;2022-11-20T08:57:33;100279.72;;;10.95;99.46
43420;BME280;29017;51.514;-0.178;2022-11-20T09:00:00;100291.91;;;10.96;99.32
43420;BME280;29017;51.514;-0.178;2022-11-20T09:02:32;100290.91;;;10.97;99.11
43420;BME280;29017;51.514;-0.178;2022-11-20T09:05:05;100291.06;;;10.95;98.93
43420;BME280;29017;51.514;-0.178;2022-11-20T09:07:33;100289.59;;;10.93;98.92
43420;BME280;29017;51.514;-0.178;2022-11-20T09:10:04;100291.91;;;10.96;98.78
43420;BME280;29017;51.514;-0.178;2022-11-20T09:12:54;100287.94;;;11.00;98.18
43420;BME280;29017;51.514;-0.178;2022-11-20T09:15:28;100289.75;;;10.99;97.56
43420;BME280;29017;51.514;-0.178;2022-11-20T09:17:59;100284.31;;;11.01;97.67
43420;BME280;29017;51.514;-0.178;2022-11-20T09:20:42;100286.59;;;11.04;97.33
43420;BME280;29017;51.514;-0.178;2022-11-20T09:23:22;100280.50;;;11.11;97.63
43420;BME280;29017;51.514;-0.178;2022-11-20T09:25:49;100275.72;;;11.15;97.63
43420;BME280;29017;51.514;-0.178;2022-11-20T09:28:30;100289.53;;;11.17;97.57
43420;BME280;29017;51.514;-0.178;2022-11-20T09:31:06;100299.06;;;11.18;97.20
43420;BME280;29017;51.514;-0.178;2022-11-20T09:33:42;100305.97;;;11.19;97.15
43420;BME280;29017;51.514;-0.178;2022-11-20T09:36:23;100307.66;;;11.12;96.45
43420;BME280;29017;51.514;-0.178;2022-11-20T09:39:09;100314.22;;;11.08;96.25
43420;BME280;29017;51.514;-0.178;2022-11-20T09:47:26;100308.97;;;11.08;96.18
43420;BME280;29017;51.514;-0.178;2022-11-20T09:55:29;100318.03;;;11.05;95.73
43420;BME280;29017;51.514;-0.178;2022-11-20T09:57:57;100306.69;;;11.05;95.81
43420;BME280;29017;51.514;-0.178;2022-11-20T10:00:40;100297.28;;;11.02;95.33
43420;BME280;29017;51.514;-0.178;2022-11-20T10:03:18;100283.50;;;11.00;95.64
43420;BME280;29017;51.514;-0.178;2022-11-20T10:06:02;100284.13;;;11.02;95.61
43420;BME280;29017;51.514;-0.178;2022-11-20T10:09:05;100286.13;;;11.00;95.56
43420;BME280;29017;51.514;-0.178;2022-11-20T10:32:41;100278.41;;;11.38;94.97
43420;BME280;29017;51.514;-0.178;2022-11-20T10:35:28;100279.22;;;11.38;94.64
43420;BME280;29017;51.514;-0.178;2022-11-20T10:38:06;100277.91;;;11.42;94.31
43420;BME280;29017;51.514;-0.178;2022-11-20T10:40:38;100284.28;;;11.48;94.83
43420;BME280;29017;51.514;-0.178;2022-11-20T10:43:15;100284.59;;;11.53;95.21
43420;BME280;29017;51.514;-0.178;2022-11-20T10:48:21;100287.34;;;11.68;96.21
43420;BME280;29017;51.514;-0.178;2022-11-20T10:51:00;100289.97;;;11.68;95.94
43420;BME280;29017;51.514;-0.178;2022-11-20T10:53:46;100283.69;;;11.69;94.91
43420;BME280;29017;51.514;-0.178;2022-11-20T10:56:38;100280.06;;;11.70;95.23
43420;BME280;29017;51.514;-0.178;2022-11-20T10:59:45;100281.22;;;11.67;94.50
43420;BME280;29017;51.514;-0.178;2022-11-20T11:02:14;100286.38;;;11.61;93.04
43420;BME280;29017;51.514;-0.178;2022-11-20T11:04:49;100287.66;;;11.65;93.25
43420;BME280;29017;51.514;-0.178;2022-11-20T11:07:30;100292.25;;;11.71;92.44
43420;BME280;29017;51.514;-0.178;2022-11-20T11:10:00;100288.28;;;11.75;92.48
43420;BME280;29017;51.514;-0.178;2022-11-20T11:12:28;100291.59;;;11.77;92.21
43420;BME280;29017;51.514;-0.178;2022-11-20T11:14:59;100288.50;;;11.73;91.26
43420;BME280;29017;51.514;-0.178;2022-11-20T11:20:49;100283.34;;;11.72;90.38
43420;BME280;29017;51.514;-0.178;2022-11-20T11:25:56;100290.91;;;11.83;90.80
43420;BME280;29017;51.514;-0.178;2022-11-20T11:28:26;100291.00;;;11.89;91.29
43420;BME280;29017;51.514;-0.178;2022-11-20T11:30:54;100286.22;;;11.93;91.41
43420;BME280;29017;51.514;-0.178;2022-11-20T11:33:30;100275.31;;;11.96;91.16
43420;BME280;29017;51.514;-0.178;2022-11-20T11:36:04;100285.00;;;12.04;90.98
43420;BME280;29017;51.514;-0.178;2022-11-20T11:38:43;100284.81;;;12.05;90.82
43420;BME280;29017;51.514;-0.178;2022-11-20T11:41:17;100284.09;;;12.11;91.17
43420;BME280;29017;51.514;-0.178;2022-11-20T11:43:52;100271.88;;;12.18;91.13
43420;BME280;29017;51.514;-0.178;2022-11-20T11:46:40;100272.31;;;12.22;91.19
43420;BME280;29017;51.514;-0.178;2022-11-20T11:54:53;100253.44;;;12.33;88.12
43420;BME280;29017;51.514;-0.178;2022-11-20T12:03:09;100252.81;;;12.46;88.19
43420;BME280;29017;51.514;-0.178;2022-11-20T12:07:56;100253.09;;;12.51;85.44
43420;BME280;29017;51.514;-0.178;2022-11-20T12:13:02;100255.84;;;12.57;85.64
43420;BME280;29017;51.514;-0.178;2022-11-20T12:15:33;100256.66;;;12.58;85.33
43420;BME280;29017;51.514;-0.178;2022-11-20T12:18:00;100253.19;;;12.57;84.61
43420;BME280;29017;51.514;-0.178;2022-11-20T12:20:33;100251.66;;;12.63;83.22
43420;BME280;29017;51.514;-0.178;2022-11-20T12:23:04;100262.06;;;12.64;81.66
43420;BME280;29017;51.514;-0.178;2022-11-20T12:25:37;100271.78;;;12.64;80.51
43420;BME280;29017;51.514;-0.178;2022-11-20T12:33:43;100268.69;;;12.75;79.31
43420;BME280;29017;51.514;-0.178;2022-11-20T12:47:24;100294.47;;;12.88;76.77
43420;BME280;29017;51.514;-0.178;2022-11-20T12:50:01;100280.06;;;12.90;75.56
43420;BME280;29017;51.514;-0.178;2022-11-20T12:55:11;100283.38;;;12.92;74.71
43420;BME280;29017;51.514;-0.178;2022-11-20T13:00:25;100285.00;;;12.93;73.53
43420;BME280;29017;51.514;-0.178;2022-11-20T13:08:11;100287.66;;;12.93;71.24
43420;BME280;29017;51.514;-0.178;2022-11-20T13:16:29;100301.31;;;12.97;72.06
43420;BME280;29017;51.514;-0.178;2022-11-20T13:19:03;100302.94;;;12.98;72.08
43420;BME280;29017;51.514;-0.178;2022-11-20T13:21:41;100304.78;;;12.97;72.40
43420;BME280;29017;51.514;-0.178;2022-11-20T13:29:32;100299.59;;;12.89;71.66
43420;BME280;29017;51.514;-0.178;2022-11-20T13:32:03;100304.59;;;12.84;71.22
43420;BME280;29017;51.514;-0.178;2022-11-20T13:34:33;100312.69;;;12.82;72.39
43420;BME280;29017;51.514;-0.178;2022-11-20T13:37:02;100315.16;;;12.84;73.85
43420;BME280;29017;51.514;-0.178;2022-11-20T13:39:33;100321.41;;;12.83;73.12
43420;BME280;29017;51.514;-0.178;2022-11-20T13:44:47;100320.16;;;12.79;70.21
43420;BME280;29017;51.514;-0.178;2022-11-20T13:47:27;100303.94;;;12.82;72.09
43420;BME280;29017;51.514;-0.178;2022-11-20T13:49:57;100314.31;;;12.83;71.77
43420;BME280;29017;51.514;-0.178;2022-11-20T13:54:58;100300.31;;;12.83;70.19
43420;BME280;29017;51.514;-0.178;2022-11-20T14:00:02;100287.66;;;12.78;68.85
43420;BME280;29017;51.514;-0.178;2022-11-20T14:02:31;100278.06;;;12.77;70.31
43420;BME280;29017;51.514;-0.178;2022-11-20T14:04:58;100265.88;;;12.76;72.00
43420;BME280;29017;51.514;-0.178;2022-11-20T14:08:02;100267.25;;;12.72;71.23
43420;BME280;29017;51.514;-0.178;2022-11-20T14:10:28;100261.97;;;12.72;72.29
43420;BME280;29017;51.514;-0.178;2022-11-20T14:12:57;100264.44;;;12.74;71.58
43420;BME280;29017;51.514;-0.178;2022-11-20T14:15:28;100268.34;;;12.78;72.60
43420;BME280;29017;51.514;-0.178;2022-11-20T14:17:56;100267.50;;;12.77;72.67
43420;BME280;29017;51.514;-0.178;2022-11-20T14:20:29;100256.50;;;12.74;71.88
43420;BME280;29017;51.514;-0.178;2022-11-20T14:22:57;100261.59;;;12.75;72.38
43420;BME280;29017;51.514;-0.178;2022-11-20T14:25:25;100250.84;;;12.77;72.88
43420;BME280;29017;51.514;-0.178;2022-11-20T14:27:58;100250.22;;;12.75;72.67
43420;BME280;29017;51.514;-0.178;2022-11-20T14:30:26;100259.97;;;12.74;73.12
43420;BME280;29017;51.514;-0.178;2022-11-20T14:33:00;100259.78;;;12.76;74.10
43420;BME280;29017;51.514;-0.178;2022-11-20T14:35:30;100270.16;;;12.77;74.57
43420;BME280;29017;51.514;-0.178;2022-11-20T14:37:57;100273.78;;;12.76;75.32
43420;BME280;29017;51.514;-0.178;2022-11-20T14:42:52;100292.16;;;12.70;72.02
43420;BME280;29017;51.514;-0.178;2022-11-20T14:45:19;100292.81;;;12.72;72.63
43420;BME280;29017;51.514;-0.178;2022-11-20T14:47:47;100286.88;;;12.70;71.17
43420;BME280;29017;51.514;-0.178;2022-11-20T14:52:52;100287.38;;;12.73;71.50
43420;BME280;29017;51.514;-0.178;2022-11-20T14:55:27;100290.81;;;12.74;71.43
43420;BME280;29017;51.514;-0.178;2022-11-20T14:58:00;100288.81;;;12.76;73.46
43420;BME280;29017;51.514;-0.178;2022-11-20T15:03:45;100282.25;;;12.72;73.04
43420;BME280;29017;51.514;-0.178;2022-11-20T15:06:12;100275.59;;;12.76;75.28
43420;BME280;29017;51.514;-0.178;2022-11-20T15:08:42;100282.25;;;12.72;75.43
43420;BME280;29017;51.514;-0.178;2022-11-20T15:11:17;100285.06;;;12.70;77.43
43420;BME280;29017;51.514;-0.178;2022-11-20T15:13:44;100278.16;;;12.69;78.52